Terminal Aerodrome Forecast
Issued by NWS

Home | Current Version | Previous Version | Text Only | Print | Product List | Glossary On
Versions: 1 2 3 4 5 6 7 8 9 10 11 12 13
000
FTUS42 KGSP 230500
TAFAND
TAF
KAND 230536Z 2306/2406 30004KT P6SM SCT120 BKN250
     FM231500 36004KT P6SM FEW045
     FM232100 33004KT P6SM VCSH SCT050
     FM240200 04004KT P6SM BKN060 PROB30 2402/2406 4SM TSRA
      BKN040CB=

USA.gov is the U.S. government's official web portal to all federal, state and local government web resources and services.